createdAt,value
2023-03-06T00:01:48.930Z,4.95
2023-03-06T00:04:17.049Z,3.78
2023-03-06T00:06:45.167Z,3.50
2023-03-06T00:09:13.281Z,4.03
2023-03-06T00:11:41.241Z,6.60
2023-03-06T00:19:41.338Z,3.35
2023-03-06T00:22:14.477Z,3.70
2023-03-06T00:24:43.649Z,3.88
2023-03-06T00:27:12.101Z,5.07
2023-03-06T00:29:40.294Z,4.75
2023-03-06T00:32:08.513Z,3.17
2023-03-06T00:34:36.697Z,3.15
2023-03-06T00:37:04.722Z,3.75
2023-03-06T00:39:33.802Z,2.88
2023-03-06T00:42:01.780Z,4.75
2023-03-06T00:44:29.802Z,2.03
2023-03-06T00:46:57.826Z,2.90
2023-03-06T00:49:25.837Z,6.15
2023-03-06T00:51:54.036Z,3.08
2023-03-06T00:54:22.143Z,3.72
2023-03-06T00:56:50.274Z,2.05
2023-03-06T00:59:18.456Z,5.53
2023-03-06T01:01:46.538Z,3.90
2023-03-06T01:04:15.123Z,4.15
2023-03-06T01:06:43.202Z,2.97
2023-03-06T01:09:11.352Z,5.07
2023-03-06T01:11:39.512Z,7.45
2023-03-06T01:14:07.935Z,6.50
2023-03-06T01:16:37.877Z,5.15
2023-03-06T01:19:06.000Z,5.72
2023-03-06T01:21:33.989Z,3.83
2023-03-06T01:24:20.712Z,6.03
2023-03-06T01:26:48.748Z,3.60
2023-03-06T01:29:16.738Z,3.47
2023-03-06T01:31:44.932Z,6.32
2023-03-06T01:34:12.978Z,5.93
2023-03-06T01:36:41.112Z,6.50
2023-03-06T01:39:29.037Z,4.40
2023-03-06T01:42:16.367Z,4.57
2023-03-06T01:45:01.699Z,6.95
2023-03-06T01:47:30.115Z,5.07
2023-03-06T01:50:00.015Z,5.88
2023-03-06T01:52:54.593Z,6.00
2023-03-06T01:55:28.297Z,6.68
2023-03-06T01:57:59.559Z,7.93
2023-03-06T02:00:29.554Z,7.05
2023-03-06T02:03:06.139Z,6.47
2023-03-06T02:05:53.223Z,9.38
2023-03-06T02:08:23.865Z,9.07
2023-03-06T02:11:21.042Z,9.68
2023-03-06T02:14:07.660Z,10.20
2023-03-06T02:16:35.792Z,8.18
2023-03-06T02:19:07.742Z,11.23
2023-03-06T02:21:56.869Z,13.68
2023-03-06T02:24:53.304Z,9.15
2023-03-06T02:27:23.163Z,10.90
2023-03-06T02:29:53.081Z,10.75
2023-03-06T02:32:21.387Z,11.35
2023-03-06T02:34:53.430Z,12.90
2023-03-06T02:37:22.672Z,14.13
2023-03-06T02:39:58.689Z,12.60
2023-03-06T02:42:29.278Z,10.57
2023-03-06T02:44:59.739Z,14.00
2023-03-06T02:47:27.825Z,9.52
2023-03-06T02:49:55.872Z,9.77
2023-03-06T02:52:24.163Z,11.05
2023-03-06T02:54:52.215Z,8.18
2023-03-06T02:57:20.403Z,9.70
2023-03-06T02:59:48.530Z,9.23
2023-03-06T03:02:35.474Z,9.35
2023-03-06T03:05:04.246Z,8.18
2023-03-06T03:07:33.153Z,7.82
2023-03-06T03:10:01.724Z,9.65
2023-03-06T03:12:30.492Z,8.95
2023-03-06T03:14:58.589Z,7.63
2023-03-06T03:17:26.678Z,7.68
2023-03-06T03:19:54.733Z,10.02
2023-03-06T03:22:23.901Z,8.60
2023-03-06T03:24:52.025Z,7.78
2023-03-06T03:27:20.217Z,7.70
2023-03-06T03:30:07.582Z,5.35
2023-03-06T03:32:37.150Z,8.00
2023-03-06T03:35:07.429Z,6.20
2023-03-06T03:37:37.071Z,5.07
2023-03-06T03:40:07.291Z,6.82
2023-03-06T03:42:35.460Z,6.32
2023-03-06T03:45:04.119Z,8.95
2023-03-06T03:47:32.270Z,7.68
2023-03-06T03:50:19.574Z,8.48
2023-03-06T03:52:48.050Z,5.80
2023-03-06T03:55:16.501Z,5.15
2023-03-06T03:57:44.814Z,4.13
2023-03-06T04:00:16.814Z,5.15
2023-03-06T04:02:55.530Z,4.60
2023-03-06T04:05:37.066Z,5.43
2023-03-06T04:08:07.622Z,5.60
2023-03-06T04:10:39.657Z,6.32
2023-03-06T04:13:10.203Z,4.60
2023-03-06T04:15:42.096Z,6.43
2023-03-06T04:18:11.320Z,6.28
2023-03-06T04:20:39.903Z,6.18
2023-03-06T04:23:08.081Z,6.30
2023-03-06T04:25:55.048Z,4.65
2023-03-06T04:28:24.117Z,4.45
2023-03-06T04:30:52.442Z,4.32
2023-03-06T04:33:21.934Z,3.75
2023-03-06T04:35:50.870Z,4.90
2023-03-06T04:38:24.317Z,4.95
2023-03-06T04:40:52.413Z,5.45
2023-03-06T04:43:20.481Z,4.40
2023-03-06T04:45:48.576Z,6.00
2023-03-06T04:48:18.826Z,2.80
2023-03-06T04:50:47.310Z,4.68
2023-03-06T04:53:17.022Z,5.38
2023-03-06T04:55:45.010Z,5.60
2023-03-06T04:58:14.441Z,5.68
2023-03-06T05:00:42.499Z,7.47
2023-03-06T05:03:12.544Z,4.95
2023-03-06T05:05:41.466Z,7.25
2023-03-06T05:08:13.710Z,5.60
2023-03-06T05:10:43.240Z,5.40
2023-03-06T05:13:11.649Z,8.93
2023-03-06T05:15:42.806Z,2.63
2023-03-06T05:18:10.799Z,3.33
2023-03-06T05:20:38.838Z,5.97
2023-03-06T05:23:07.016Z,3.55
2023-03-06T05:25:35.097Z,4.32
2023-03-06T05:28:03.264Z,6.65
2023-03-06T05:30:31.237Z,3.55
2023-03-06T05:33:00.196Z,5.05
2023-03-06T05:35:28.521Z,5.43
2023-03-06T05:37:57.025Z,5.13
2023-03-06T05:40:25.111Z,5.18
2023-03-06T05:42:53.256Z,5.68
2023-03-06T05:45:21.275Z,3.58
2023-03-06T05:47:49.331Z,4.55
2023-03-06T05:50:17.536Z,3.42
2023-03-06T05:52:45.527Z,2.90
2023-03-06T05:55:13.817Z,2.60
2023-03-06T06:00:27.767Z,3.20
2023-03-06T06:02:55.943Z,3.33
2023-03-06T06:05:24.085Z,5.53
2023-03-06T06:07:52.085Z,4.43
2023-03-06T06:10:20.300Z,4.53
2023-03-06T06:12:48.235Z,4.70
2023-03-06T06:15:16.474Z,5.10
2023-03-06T06:17:44.504Z,3.00
2023-03-06T06:20:30.834Z,4.82
2023-03-06T06:22:58.967Z,4.70
2023-03-06T06:25:27.045Z,5.68
2023-03-06T06:27:56.837Z,3.75
2023-03-06T06:30:25.012Z,4.38
2023-03-06T06:35:38.416Z,4.63
2023-03-06T06:38:06.490Z,4.63
2023-03-06T06:40:34.728Z,3.05
2023-03-06T06:43:02.763Z,2.72
2023-03-06T06:45:30.786Z,4.22
2023-03-06T06:47:58.856Z,4.03
2023-03-06T06:50:27.077Z,5.28
2023-03-06T06:55:40.667Z,3.25
2023-03-06T06:58:08.704Z,2.38
2023-03-06T07:00:36.767Z,2.78
2023-03-06T07:03:04.745Z,1.60
2023-03-06T07:05:32.846Z,2.45
2023-03-06T07:08:00.826Z,2.67
2023-03-06T07:10:28.911Z,2.42
2023-03-06T07:12:57.100Z,2.50
2023-03-06T07:15:27.341Z,2.15
2023-03-06T07:17:55.456Z,2.75
2023-03-06T07:20:23.785Z,2.15
2023-03-06T07:22:52.107Z,3.17
2023-03-06T07:25:21.128Z,2.72
2023-03-06T07:27:55.354Z,2.80
2023-03-06T07:30:24.048Z,3.20
2023-03-06T07:32:57.086Z,2.85
2023-03-06T07:35:26.076Z,2.58
2023-03-06T07:37:54.939Z,2.40
2023-03-06T07:40:24.140Z,3.22
2023-03-06T07:43:09.196Z,3.50
2023-03-06T07:48:32.460Z,2.78
2023-03-06T07:51:13.839Z,2.72
2023-03-06T07:53:42.063Z,3.95
2023-03-06T07:56:11.503Z,2.00
2023-03-06T07:58:41.840Z,4.07
2023-03-06T08:01:13.456Z,3.55
2023-03-06T08:03:41.786Z,2.95
2023-03-06T08:06:13.384Z,2.83
2023-03-06T08:08:43.761Z,1.33
2023-03-06T08:11:31.504Z,2.97
2023-03-06T08:13:59.805Z,5.32
2023-03-06T08:19:16.138Z,1.77
2023-03-06T08:21:44.259Z,2.67
2023-03-06T08:24:13.551Z,5.85
2023-03-06T08:26:41.668Z,2.50
2023-03-06T08:29:11.015Z,1.25
2023-03-06T08:31:41.985Z,2.33
2023-03-06T08:34:19.461Z,1.52
2023-03-06T08:36:47.770Z,3.90
2023-03-06T08:39:16.001Z,2.92
2023-03-06T08:44:29.667Z,1.73
2023-03-06T08:47:16.390Z,2.05
2023-03-06T08:50:03.858Z,4.43
2023-03-06T08:52:50.228Z,6.78
2023-03-06T08:55:18.503Z,2.85
2023-03-06T08:57:46.500Z,3.10
2023-03-06T09:00:15.547Z,5.95
2023-03-06T09:02:43.641Z,3.30
2023-03-06T09:05:11.962Z,4.25
2023-03-06T09:07:39.989Z,2.70
2023-03-06T09:10:08.825Z,2.03
2023-03-06T09:12:49.934Z,2.90
2023-03-06T09:15:21.137Z,1.92
2023-03-06T09:17:49.368Z,3.33
2023-03-06T09:20:19.043Z,4.82
2023-03-06T09:22:47.546Z,8.23
2023-03-06T09:28:18.584Z,6.18
2023-03-06T09:30:46.712Z,4.50
2023-03-06T09:38:11.694Z,5.10
2023-03-06T09:41:02.152Z,4.95
2023-03-06T09:43:43.964Z,4.78
2023-03-06T09:46:36.652Z,4.05
2023-03-06T09:49:15.523Z,2.65
2023-03-06T09:51:52.598Z,6.57
2023-03-06T09:54:32.848Z,2.67
2023-03-06T09:57:01.175Z,4.38
2023-03-06T09:59:29.903Z,5.47
2023-03-06T10:02:16.473Z,4.78
2023-03-06T10:04:50.531Z,7.00
2023-03-06T10:07:25.735Z,6.20
2023-03-06T10:10:07.526Z,3.47
2023-03-06T10:12:48.635Z,4.78
2023-03-06T10:15:24.574Z,2.78
2023-03-06T10:17:53.389Z,6.07
2023-03-06T10:20:21.614Z,6.40
2023-03-06T10:23:13.882Z,5.10
2023-03-06T10:26:01.862Z,2.75
2023-03-06T10:28:37.678Z,3.53
2023-03-06T10:31:24.115Z,6.10
2023-03-06T10:34:13.858Z,3.22
2023-03-06T10:36:41.925Z,3.28
2023-03-06T10:39:20.045Z,3.80
2023-03-06T10:41:49.616Z,5.78
2023-03-06T10:44:22.378Z,4.85
2023-03-06T10:46:52.999Z,4.22
2023-03-06T10:49:33.344Z,4.60
2023-03-06T10:52:10.588Z,4.82
2023-03-06T10:57:32.468Z,3.45
2023-03-06T11:00:05.345Z,6.55
2023-03-06T11:02:41.219Z,3.72
2023-03-06T11:05:21.878Z,4.75
2023-03-06T11:07:56.100Z,2.88
2023-03-06T11:10:24.725Z,3.15
2023-03-06T11:13:17.622Z,3.22
2023-03-06T11:16:27.034Z,7.00
2023-03-06T11:19:18.012Z,6.30
2023-03-06T11:22:04.255Z,6.57
2023-03-06T11:24:46.215Z,7.13
2023-03-06T11:27:24.481Z,5.45
2023-03-06T11:29:55.307Z,3.03
2023-03-06T11:32:28.180Z,4.55
2023-03-06T11:35:12.555Z,4.88
2023-03-06T11:37:43.193Z,7.18
2023-03-06T11:40:11.195Z,8.43
2023-03-06T11:43:04.888Z,5.30
2023-03-06T11:45:34.936Z,4.65
2023-03-06T11:48:30.376Z,6.03
2023-03-06T11:51:06.790Z,6.40
2023-03-06T11:53:38.471Z,7.00
2023-03-06T11:56:30.579Z,5.40
2023-03-06T11:59:28.156Z,6.85
2023-03-06T12:02:20.909Z,5.53
2023-03-06T12:08:22.969Z,6.80
2023-03-06T12:10:57.701Z,3.65
2023-03-06T12:13:57.164Z,7.82
2023-03-06T12:16:25.325Z,4.25
2023-03-06T12:18:59.202Z,8.50
2023-03-06T12:21:44.998Z,9.30
2023-03-06T12:24:42.629Z,5.38
2023-03-06T12:27:28.907Z,6.07
2023-03-06T12:30:14.936Z,5.22
2023-03-06T12:33:09.002Z,3.53
2023-03-06T12:35:55.368Z,5.43
2023-03-06T12:38:47.629Z,3.85
2023-03-06T12:41:40.078Z,7.05
2023-03-06T12:44:31.940Z,4.03
2023-03-06T12:47:08.520Z,3.75
2023-03-06T12:49:40.507Z,6.50
2023-03-06T12:52:12.474Z,4.38
2023-03-06T12:54:41.831Z,5.40
2023-03-06T12:57:10.272Z,3.47
2023-03-06T12:59:48.095Z,4.55
2023-03-06T13:02:42.148Z,6.85
2023-03-06T13:05:25.179Z,6.00
2023-03-06T13:08:21.979Z,3.55
2023-03-06T13:11:30.993Z,3.75
2023-03-06T13:13:59.199Z,6.28
2023-03-06T13:16:34.902Z,8.82
2023-03-06T13:19:19.636Z,3.53
2023-03-06T13:22:01.522Z,6.25
2023-03-06T13:24:35.829Z,6.00
2023-03-06T13:27:12.560Z,10.05
2023-03-06T13:29:40.796Z,7.63
2023-03-06T13:32:17.479Z,4.75
2023-03-06T13:34:48.686Z,5.13
2023-03-06T13:37:25.215Z,3.95
2023-03-06T13:39:56.034Z,3.95
2023-03-06T13:42:51.667Z,4.60
2023-03-06T13:45:31.800Z,7.38
2023-03-06T13:48:37.553Z,2.40
2023-03-06T13:50:50.144Z,5.65
2023-03-06T13:54:18.129Z,5.63
2023-03-06T13:57:09.981Z,6.25
2023-03-06T13:59:38.174Z,5.97
2023-03-06T14:02:29.885Z,4.97
2023-03-06T14:05:00.178Z,4.82
2023-03-06T14:07:40.785Z,4.32
2023-03-06T14:10:14.946Z,5.57
2023-03-06T14:12:43.041Z,7.22
2023-03-06T14:15:35.253Z,5.82
2023-03-06T14:18:07.639Z,4.55
2023-03-06T14:20:49.405Z,4.93
2023-03-06T14:23:38.424Z,6.03
2023-03-06T14:26:22.250Z,4.35
2023-03-06T14:28:53.290Z,6.82
2023-03-06T14:31:24.860Z,4.32
2023-03-06T14:36:51.410Z,3.08
2023-03-06T14:39:24.580Z,3.35
2023-03-06T14:42:21.765Z,4.03
2023-03-06T14:45:19.400Z,6.07
2023-03-06T14:48:06.754Z,5.68
2023-03-06T14:50:35.319Z,4.47
2023-03-06T14:53:19.517Z,2.95
2023-03-06T14:55:58.205Z,5.95
2023-03-06T14:58:36.861Z,2.70
2023-03-06T15:01:08.743Z,5.10
2023-03-06T15:03:56.057Z,4.75
2023-03-06T15:06:40.537Z,3.80
2023-03-06T15:09:14.184Z,3.20
2023-03-06T15:11:52.048Z,2.65
2023-03-06T15:14:22.704Z,3.55
2023-03-06T15:16:50.834Z,3.00
2023-03-06T15:19:21.608Z,2.92
2023-03-06T15:21:52.141Z,3.47
2023-03-06T15:24:35.992Z,3.35
2023-03-06T15:27:06.840Z,4.15
2023-03-06T15:29:40.252Z,8.07
2023-03-06T15:32:30.124Z,2.38
2023-03-06T15:35:34.730Z,1.90
2023-03-06T15:38:23.056Z,5.05
2023-03-06T15:40:56.102Z,4.20
2023-03-06T15:46:11.278Z,4.30
2023-03-06T15:48:39.724Z,3.72
2023-03-06T15:51:09.037Z,2.28
2023-03-06T15:53:37.049Z,3.50
2023-03-06T15:56:05.321Z,3.45
2023-03-06T15:58:34.467Z,3.47
2023-03-06T16:01:04.080Z,3.22
2023-03-06T16:03:32.285Z,2.20
2023-03-06T16:06:00.525Z,3.67
2023-03-06T16:08:29.074Z,3.05
2023-03-06T16:10:57.191Z,2.35
2023-03-06T16:13:29.340Z,2.33
2023-03-06T16:15:57.510Z,3.17
2023-03-06T16:18:25.629Z,3.92
2023-03-06T16:20:53.733Z,2.47
2023-03-06T16:23:21.776Z,2.45
2023-03-06T16:25:50.051Z,2.10
2023-03-06T16:28:18.754Z,4.03
2023-03-06T16:30:47.090Z,3.75
2023-03-06T16:33:15.231Z,3.42
2023-03-06T16:35:46.787Z,3.15
2023-03-06T16:38:33.670Z,5.45
2023-03-06T16:41:01.844Z,4.70
2023-03-06T16:43:29.877Z,5.63
2023-03-06T16:45:57.913Z,2.17
2023-03-06T16:48:25.898Z,6.47
2023-03-06T16:50:54.042Z,4.70
2023-03-06T16:53:24.856Z,2.40
2023-03-06T16:55:52.871Z,6.13
2023-03-06T16:58:21.644Z,2.75
2023-03-06T17:00:49.843Z,4.32
2023-03-06T17:03:18.237Z,3.13
2023-03-06T17:05:46.246Z,4.90
2023-03-06T17:08:14.369Z,4.25
2023-03-06T17:10:45.651Z,4.38
2023-03-06T17:13:13.913Z,2.40
2023-03-06T17:15:41.961Z,4.00
2023-03-06T17:18:10.035Z,2.95
2023-03-06T17:20:38.741Z,3.60
2023-03-06T17:23:06.797Z,4.75
2023-03-06T17:25:35.285Z,6.00
2023-03-06T17:28:03.482Z,3.47
2023-03-06T17:30:31.482Z,2.95
2023-03-06T17:33:00.622Z,2.55
2023-03-06T17:35:29.171Z,4.90
2023-03-06T17:38:00.343Z,5.20
2023-03-06T17:40:28.617Z,4.47
2023-03-06T17:42:56.876Z,3.92
2023-03-06T17:45:26.575Z,7.97
2023-03-06T17:47:54.783Z,6.57
2023-03-06T17:50:22.901Z,8.38
2023-03-06T17:52:50.999Z,5.07
2023-03-06T17:55:19.024Z,7.22
2023-03-06T17:57:47.016Z,4.15
2023-03-06T18:00:15.500Z,6.75
2023-03-06T18:02:45.637Z,5.60
2023-03-06T18:05:13.803Z,2.83
2023-03-06T18:07:41.821Z,2.40
2023-03-06T18:10:10.380Z,4.03
2023-03-06T18:12:38.350Z,3.00
2023-03-06T18:15:07.014Z,3.10
2023-03-06T18:17:35.049Z,3.15
2023-03-06T18:20:03.608Z,3.97
2023-03-06T18:22:31.722Z,4.60
2023-03-06T18:24:59.710Z,7.93
2023-03-06T18:27:27.676Z,6.75
2023-03-06T18:30:14.017Z,3.40
2023-03-06T18:32:42.098Z,5.32
2023-03-06T18:35:10.283Z,4.22
2023-03-06T18:37:38.755Z,3.05
2023-03-06T18:40:07.562Z,6.05
2023-03-06T18:42:35.751Z,2.10
2023-03-06T18:45:03.933Z,4.03
2023-03-06T18:47:32.254Z,2.22
2023-03-06T18:50:00.285Z,3.67
2023-03-06T18:52:28.369Z,2.20
2023-03-06T18:54:56.561Z,2.80
2023-03-06T18:57:24.760Z,4.60
2023-03-06T18:59:52.824Z,2.95
2023-03-06T19:02:21.232Z,4.22
2023-03-06T19:04:49.224Z,4.30
2023-03-06T19:07:17.461Z,4.15
2023-03-06T19:09:45.647Z,1.95
2023-03-06T19:12:13.713Z,3.92
2023-03-06T19:15:00.224Z,3.72
2023-03-06T19:17:28.270Z,4.70
2023-03-06T19:19:56.466Z,11.20
2023-03-06T19:22:24.591Z,4.38
2023-03-06T19:27:40.758Z,2.97
2023-03-06T19:30:11.650Z,6.30
2023-03-06T19:32:40.112Z,7.18
2023-03-06T19:35:10.752Z,4.20
2023-03-06T19:37:38.928Z,4.35
2023-03-06T19:40:07.854Z,5.38
2023-03-06T19:42:36.072Z,5.43
2023-03-06T19:45:05.201Z,4.13
2023-03-06T19:47:33.523Z,4.65
2023-03-06T19:50:01.706Z,4.35
2023-03-06T19:52:29.943Z,5.80
2023-03-06T19:55:16.826Z,5.65
2023-03-06T19:57:45.594Z,5.85
2023-03-06T20:00:14.254Z,4.82
2023-03-06T20:02:43.321Z,2.13
2023-03-06T20:05:11.534Z,4.65
2023-03-06T20:07:39.676Z,5.90
2023-03-06T20:10:08.209Z,4.57
2023-03-06T20:12:36.421Z,6.57
2023-03-06T20:15:07.184Z,4.18
2023-03-06T20:17:35.970Z,5.45
2023-03-06T20:20:04.638Z,7.78
2023-03-06T20:22:32.750Z,5.22
2023-03-06T20:25:00.792Z,4.20
2023-03-06T20:27:28.828Z,5.38
2023-03-06T20:29:56.969Z,5.72
2023-03-06T20:32:25.293Z,4.05
2023-03-06T20:34:53.582Z,4.93
2023-03-06T20:40:08.125Z,1.95
2023-03-06T20:42:36.230Z,2.90
2023-03-06T20:45:05.370Z,1.95
2023-03-06T20:47:52.337Z,3.53
2023-03-06T20:50:39.089Z,3.78
2023-03-06T20:53:07.426Z,2.47
2023-03-06T20:55:37.909Z,2.72
2023-03-06T20:58:05.926Z,3.08
2023-03-06T21:00:34.155Z,3.47
2023-03-06T21:03:02.207Z,1.75
2023-03-06T21:05:30.441Z,5.72
2023-03-06T21:07:58.530Z,2.50
2023-03-06T21:10:26.684Z,5.15
2023-03-06T21:12:55.499Z,3.25
2023-03-06T21:15:27.312Z,4.10
2023-03-06T21:17:55.473Z,1.15
2023-03-06T21:20:24.007Z,1.00
2023-03-06T21:22:52.288Z,3.00
2023-03-06T21:25:20.364Z,8.27
2023-03-06T21:27:48.384Z,1.55
2023-03-06T21:30:16.535Z,2.80
2023-03-06T21:32:44.631Z,1.42
2023-03-06T21:35:12.973Z,1.85
2023-03-06T21:37:41.115Z,3.95
2023-03-06T21:40:10.636Z,1.42
2023-03-06T21:42:38.825Z,3.70
2023-03-06T21:45:08.546Z,5.68
2023-03-06T21:47:39.054Z,3.50
2023-03-06T21:50:09.948Z,4.50
2023-03-06T21:52:38.056Z,7.78
2023-03-06T21:55:06.765Z,3.50
2023-03-06T21:57:34.993Z,3.17
2023-03-06T22:00:07.983Z,2.00
2023-03-06T22:02:39.106Z,2.92
2023-03-06T22:05:07.437Z,2.58
2023-03-06T22:07:36.869Z,5.53
2023-03-06T22:10:09.664Z,4.72
2023-03-06T22:12:38.088Z,4.40
2023-03-06T22:15:06.989Z,2.97
2023-03-06T22:17:35.220Z,2.70
2023-03-06T22:20:04.425Z,4.28
2023-03-06T22:22:32.749Z,2.65
2023-03-06T22:25:00.806Z,2.38
2023-03-06T22:27:30.088Z,6.57
2023-03-06T22:29:58.129Z,5.22
2023-03-06T22:32:26.207Z,6.70
2023-03-06T22:34:54.479Z,6.13
2023-03-06T22:37:22.615Z,5.88
2023-03-06T22:39:50.673Z,3.85
2023-03-06T22:42:18.661Z,5.78
2023-03-06T22:44:46.892Z,6.82
2023-03-06T22:47:14.964Z,3.83
2023-03-06T22:49:43.031Z,6.10
2023-03-06T22:54:56.400Z,5.35
2023-03-06T22:57:24.641Z,3.97
2023-03-06T22:59:52.804Z,3.50
2023-03-06T23:02:20.819Z,3.10
2023-03-06T23:04:53.587Z,2.70
2023-03-06T23:07:21.736Z,2.42
2023-03-06T23:09:50.648Z,2.30
2023-03-06T23:12:37.470Z,4.65
2023-03-06T23:15:24.245Z,2.92
2023-03-06T23:18:10.959Z,3.10
2023-03-06T23:20:57.483Z,2.85
2023-03-06T23:23:48.703Z,2.25
2023-03-06T23:26:18.621Z,3.33
2023-03-06T23:28:47.005Z,3.63
2023-03-06T23:31:19.105Z,2.88
2023-03-06T23:33:48.330Z,2.17
2023-03-06T23:36:18.688Z,1.63
2023-03-06T23:39:05.030Z,1.83
2023-03-06T23:41:33.125Z,1.98
2023-03-06T23:44:01.603Z,2.05
2023-03-06T23:46:29.962Z,2.20
2023-03-06T23:48:58.069Z,1.90
2023-03-06T23:51:26.160Z,1.48
2023-03-06T23:53:59.258Z,2.25
2023-03-06T23:56:28.693Z,1.95
2023-03-06T23:58:57.037Z,2.30
